Time;durP1;ratioP1;P1;durP2;ratioP2;P2;SDS_P1;SDS_P2;PMS_P1;PMS_P2;Temp;Humidity;BMP_temperature;BMP_pressure;BME280_temperature;BME280_humidity;BME280_pressure;Samples;Min_cycle;Max_cycle;Signal;HPM_P1;HPM_P2
2020/12/09 00:00:14;;;;;;;54.33;34.63;;;1.10;99.90;;;1.62;90.66;96804.09;5232594;28;20201;-81
2020/12/09 00:02:46;;;;;;;50.13;34.70;;;1.10;99.90;;;1.62;91.58;96807.50;5230496;28;20720;-80
2020/12/09 00:05:19;;;;;;;47.57;32.73;;;1.10;99.90;;;1.58;90.88;96806.41;5243137;28;20215;-81
2020/12/09 00:07:51;;;;;;;44.13;31.13;;;1.10;99.90;;;1.53;91.26;96804.31;5230840;28;20202;-79
2020/12/09 00:10:23;;;;;;;49.57;34.80;;;1.10;99.90;;;1.51;91.37;96806.69;5236015;28;20315;-81
2020/12/09 00:12:55;;;;;;;48.83;33.40;;;1.10;99.90;;;1.51;92.45;96810.88;5230142;28;20222;-81
2020/12/09 00:15:28;;;;;;;53.10;35.73;;;1.00;99.90;;;1.53;91.86;96811.88;5243867;28;20204;-82
2020/12/09 00:18:00;;;;;;;55.27;36.30;;;1.10;99.90;;;1.53;91.81;96814.38;5240251;28;20206;-81
2020/12/09 00:20:32;;;;;;;55.53;36.57;;;1.10;99.90;;;1.51;92.62;96815.91;5233619;28;20202;-81
2020/12/09 00:23:05;;;;;;;50.80;33.60;;;1.10;99.90;;;1.50;92.56;96819.19;5230260;28;20279;-80
2020/12/09 00:25:37;;;;;;;48.27;33.47;;;1.00;99.90;;;1.48;93.00;96816.53;5230066;28;20204;-81
2020/12/09 00:28:10;;;;;;;53.20;35.37;;;1.00;99.90;;;1.50;92.99;96820.06;5233857;28;20218;-83
2020/12/09 00:30:43;;;;;;;52.40;34.57;;;1.10;99.90;;;1.48;92.93;96816.53;5246589;28;20571;-82
2020/12/09 00:33:15;;;;;;;51.43;34.93;;;1.00;99.90;;;1.49;92.68;96815.81;5241217;28;20232;-79
2020/12/09 00:35:47;;;;;;;52.13;33.83;;;1.00;99.90;;;1.46;93.03;96817.19;5235435;28;20578;-81
2020/12/09 00:38:19;;;;;;;54.80;34.47;;;1.00;99.90;;;1.47;93.48;96818.97;5239891;28;20208;-82
2020/12/09 00:40:51;;;;;;;54.27;37.47;;;1.00;99.90;;;1.44;92.90;96824.66;5230094;28;20196;-81
2020/12/09 00:43:23;;;;;;;55.53;34.83;;;1.00;99.90;;;1.44;92.94;96819.59;5259653;22;20231;-77
2020/12/09 00:45:56;;;;;;;55.67;35.13;;;1.00;99.90;;;1.46;93.30;96822.22;5305151;27;20221;-79
2020/12/09 00:48:28;;;;;;;51.13;34.07;;;1.00;99.90;;;1.46;93.24;96824.75;5293848;28;20205;-79
2020/12/09 00:51:00;;;;;;;54.07;35.87;;;1.00;99.90;;;1.43;92.95;96816.97;5290887;28;20205;-80
2020/12/09 00:53:32;;;;;;;53.40;35.33;;;1.00;99.90;;;1.46;93.12;96824.75;5292454;28;20218;-78
2020/12/09 00:56:07;;;;;;;54.83;35.63;;;1.00;99.90;;;1.46;93.38;96822.22;5291669;28;20201;-80
2020/12/09 00:58:40;;;;;;;51.37;32.43;;;1.00;99.90;;;1.45;93.95;96831.41;5291996;28;20197;-78
2020/12/09 01:01:13;;;;;;;51.13;34.47;;;1.00;99.90;;;1.45;93.27;96825.50;5292493;28;20209;-80
2020/12/09 01:03:46;;;;;;;53.47;35.50;;;1.00;99.90;;;1.47;94.26;96836.59;5278981;28;20308;-80
2020/12/09 01:06:18;;;;;;;50.63;33.97;;;1.00;99.90;;;1.47;94.25;96839.09;5292020;28;20700;-78
2020/12/09 01:08:50;;;;;;;53.30;32.63;;;1.00;99.90;;;1.48;93.90;96841.72;5292400;28;20297;-79
2020/12/09 01:11:23;;;;;;;52.47;33.30;;;1.00;99.90;;;1.50;93.51;96834.28;5293413;28;20673;-80
2020/12/09 01:13:55;;;;;;;50.27;34.30;;;1.10;99.90;;;1.49;94.35;96842.63;5283621;28;20221;-80
2020/12/09 01:16:28;;;;;;;53.13;34.43;;;1.10;99.90;;;1.49;93.94;96837.59;5272484;28;20595;-79
2020/12/09 01:19:00;;;;;;;52.30;34.53;;;1.10;99.90;;;1.54;94.66;96846.34;5286134;28;20208;-78
2020/12/09 01:21:32;;;;;;;54.10;34.40;;;1.10;99.90;;;1.56;94.50;96844.81;5287715;28;20197;-78
2020/12/09 01:24:05;;;;;;;50.30;34.60;;;1.10;99.90;;;1.57;94.57;96841.53;5291857;28;20321;-78
2020/12/09 01:26:37;;;;;;;56.83;37.23;;;1.10;99.90;;;1.58;94.04;96839.13;5293209;28;20224;-78
2020/12/09 01:29:09;;;;;;;55.23;34.77;;;1.10;99.90;;;1.58;94.32;96838.25;5291640;28;20206;-78
2020/12/09 01:31:42;;;;;;;52.70;36.40;;;1.10;99.90;;;1.58;94.90;96841.66;5285552;28;20682;-77
2020/12/09 01:34:14;;;;;;;55.67;35.57;;;1.10;99.90;;;1.60;94.47;96844.28;5284434;28;20232;-78
2020/12/09 01:36:46;;;;;;;54.93;35.07;;;1.10;99.90;;;1.61;94.50;96847.69;5271830;28;20555;-79
2020/12/09 01:39:19;;;;;;;52.23;33.47;;;1.10;99.90;;;1.60;94.27;96859.38;5287025;28;20289;-79
2020/12/09 01:41:51;;;;;;;53.07;35.17;;;1.10;99.90;;;1.64;93.83;96871.47;5293078;28;20187;-79
2020/12/09 01:44:24;;;;;;;49.33;34.13;;;1.10;99.90;;;1.68;94.81;96873.44;5290984;28;20321;-80
2020/12/09 01:46:58;;;;;;;52.50;34.97;;;1.10;99.90;;;1.66;94.40;96872.47;5277138;28;20218;-78
2020/12/09 01:49:32;;;;;;;53.63;35.00;;;1.10;99.90;;;1.65;94.31;96865.66;5285257;28;20198;-78
2020/12/09 01:52:06;;;;;;;49.97;35.07;;;1.10;99.90;;;1.64;94.26;96868.94;5312107;27;20205;-79
2020/12/09 01:54:38;;;;;;;47.13;32.80;;;1.10;99.90;;;1.66;94.52;96867.41;5311941;27;20223;-79
2020/12/09 01:57:12;;;;;;;51.40;33.57;;;1.20;99.90;;;1.69;94.56;96869.25;5293627;28;20569;-79
2020/12/09 01:59:44;;;;;;;50.13;32.67;;;1.20;99.90;;;1.68;94.74;96877.59;5283952;28;20332;-78
2020/12/09 02:02:17;;;;;;;55.37;35.57;;;1.20;99.90;;;1.71;94.67;96878.69;5280761;28;20195;-78
2020/12/09 02:04:49;;;;;;;51.97;33.07;;;1.20;99.90;;;1.74;94.91;96885.59;5279237;28;20833;-79
2020/12/09 02:07:22;;;;;;;50.53;33.03;;;1.20;99.90;;;1.74;95.19;96883.94;5295592;28;20222;-79
2020/12/09 02:09:59;;;;;;;52.30;34.93;;;1.30;99.90;;;1.75;95.53;96895.81;5311773;28;20226;-77
2020/12/09 02:12:33;;;;;;;53.50;34.50;;;1.20;99.90;;;1.75;95.20;96903.38;5290731;28;20194;-79
2020/12/09 02:15:05;;;;;;;53.13;35.37;;;1.20;99.90;;;1.78;94.81;96905.25;5271696;28;20224;-80
2020/12/09 02:17:38;;;;;;;54.80;34.87;;;1.20;99.90;;;1.76;94.91;96909.28;5306217;28;20232;-78
2020/12/09 02:20:10;;;;;;;53.33;35.13;;;1.20;99.90;;;1.75;95.57;96908.41;5308469;28;20282;-78
2020/12/09 02:22:51;;;;;;;50.37;33.27;;;1.20;99.90;;;1.77;95.24;96908.50;5312477;28;20254;-77
2020/12/09 02:25:24;;;;;;;52.90;34.13;;;1.20;99.90;;;1.78;95.32;96913.66;5292084;28;20317;-77
2020/12/09 02:27:56;;;;;;;51.43;34.20;;;1.30;99.90;;;1.79;95.45;96919.56;5280633;28;20226;-77
2020/12/09 02:30:28;;;;;;;52.07;33.10;;;1.30;99.90;;;1.82;95.21;96913.88;5277890;28;20202;-78
2020/12/09 02:33:00;;;;;;;54.97;36.47;;;1.30;99.90;;;1.85;95.53;96921.69;5291407;28;20650;-77
2020/12/09 02:35:32;;;;;;;54.23;35.07;;;1.30;99.90;;;1.85;95.62;96924.19;5270652;28;20215;-78
2020/12/09 02:38:05;;;;;;;52.87;33.20;;;1.30;99.90;;;1.85;95.98;96920.03;5289030;28;20212;-78
2020/12/09 02:40:37;;;;;;;51.50;33.60;;;1.30;99.90;;;1.86;95.19;96924.31;5281988;28;20196;-77
2020/12/09 02:43:09;;;;;;;57.87;36.07;;;1.40;99.90;;;1.88;96.16;96916.88;5270255;28;20206;-77
2020/12/09 02:45:41;;;;;;;53.47;34.77;;;1.40;99.90;;;1.89;95.46;96909.44;5283017;28;20216;-78
2020/12/09 02:48:13;;;;;;;50.50;33.97;;;1.40;99.90;;;1.92;96.67;96907.13;5289997;28;20207;-77
2020/12/09 02:50:45;;;;;;;54.20;35.47;;;1.40;99.90;;;1.94;95.85;96899.69;5290913;28;20203;-78
2020/12/09 02:53:18;;;;;;;59.43;37.43;;;1.40;99.90;;;1.92;95.71;96911.31;5286127;28;20634;-78
2020/12/09 02:55:50;;;;;;;61.80;36.40;;;1.40;99.90;;;1.87;95.55;96913.47;5290243;28;20196;-78
2020/12/09 02:58:23;;;;;;;55.50;35.03;;;1.40;99.90;;;1.84;96.55;96917.41;5291027;28;20198;-78
2020/12/09 03:00:56;;;;;;;59.00;35.97;;;1.40;99.90;;;1.81;95.82;96918.06;5273901;28;20198;-78
2020/12/09 03:03:28;;;;;;;60.37;36.13;;;1.30;99.90;;;1.80;96.43;96922.22;5276563;28;20189;-78
2020/12/09 03:06:00;;;;;;;54.93;35.73;;;1.30;99.90;;;1.82;95.66;96931.53;5288834;28;20202;-79
2020/12/09 03:08:33;;;;;;;57.20;36.53;;;1.30;99.90;;;1.81;95.34;96933.16;5276858;28;20189;-78
2020/12/09 03:11:05;;;;;;;53.47;33.53;;;1.30;99.90;;;1.71;95.42;96941.66;5290130;28;20207;-77
2020/12/09 03:13:37;;;;;;;52.27;33.07;;;1.20;99.90;;;1.66;95.14;96944.59;5290522;28;20218;-77
2020/12/09 03:16:09;;;;;;;59.70;37.53;;;1.20;99.90;;;1.69;96.13;96952.38;5279442;28;20203;-79
2020/12/09 03:18:41;;;;;;;55.57;35.47;;;1.20;99.90;;;1.68;95.99;96956.53;5271680;28;20195;-78
2020/12/09 03:21:13;;;;;;;56.97;35.63;;;1.10;99.90;;;1.65;96.04;96955.44;5291113;28;20204;-79
2020/12/09 03:23:46;;;;;;;55.07;34.17;;;1.10;99.90;;;1.60;96.43;96960.09;5289817;28;20222;-78
2020/12/09 03:26:18;;;;;;;55.83;35.83;;;1.10;99.90;;;1.56;96.44;96955.63;5286811;28;20698;-77
2020/12/09 03:28:50;;;;;;;56.43;34.67;;;1.10;99.90;;;1.52;96.88;96952.00;5291201;28;20204;-77
2020/12/09 03:31:22;;;;;;;57.20;34.80;;;1.10;99.90;;;1.57;96.73;96947.28;5286191;28;20265;-78
2020/12/09 03:33:54;;;;;;;54.80;33.57;;;1.10;99.90;;;1.64;97.32;96946.13;5288892;28;20226;-78
2020/12/09 03:36:26;;;;;;;58.97;34.30;;;1.20;99.90;;;1.68;96.81;96946.47;5288457;28;20198;-79
2020/12/09 03:38:59;;;;;;;57.00;34.87;;;1.20;99.90;;;1.71;97.68;96941.66;5290481;28;20289;-79
2020/12/09 03:41:31;;;;;;;56.53;35.80;;;1.20;99.90;;;1.77;98.23;96937.09;5290707;28;20198;-78
2020/12/09 03:44:03;;;;;;;55.07;35.50;;;1.30;99.90;;;1.79;98.06;96942.25;5289483;28;20763;-78
2020/12/09 03:46:35;;;;;;;60.50;36.07;;;1.30;99.90;;;1.81;97.84;96940.72;5287894;28;20219;-77
2020/12/09 03:49:07;;;;;;;54.30;35.63;;;1.30;99.90;;;1.81;98.01;96940.72;5278549;28;20203;-79
2020/12/09 03:51:39;;;;;;;51.80;33.60;;;1.30;99.90;;;1.77;98.48;96937.09;5289739;28;20204;-79
2020/12/09 03:54:12;;;;;;;58.43;35.90;;;1.30;99.90;;;1.75;97.88;96927.69;5290567;28;20686;-77
2020/12/09 03:56:44;;;;;;;58.10;36.30;;;1.30;99.90;;;1.71;97.41;96936.63;5290677;28;20199;-78
2020/12/09 03:59:16;;;;;;;65.17;36.57;;;1.30;99.90;;;1.69;97.67;96920.53;5289570;28;20658;-79
2020/12/09 04:01:48;;;;;;;57.60;34.07;;;1.30;99.90;;;1.66;97.47;96927.88;5290531;28;20195;-78
2020/12/09 04:04:21;;;;;;;52.13;33.40;;;1.20;99.90;;;1.65;97.86;96918.53;5289035;28;20301;-78
2020/12/09 04:06:53;;;;;;;60.13;36.10;;;1.20;99.90;;;1.62;97.81;96913.25;5288914;28;20222;-79
2020/12/09 04:09:26;;;;;;;57.93;36.27;;;1.20;99.90;;;1.62;97.48;96920.81;5289923;28;20233;-78
2020/12/09 04:11:58;;;;;;;56.60;34.97;;;1.10;99.90;;;1.62;97.29;96915.78;5289862;28;20195;-78
2020/12/09 04:14:30;;;;;;;56.90;36.07;;;1.10;99.90;;;1.60;98.01;96912.25;5290426;28;20231;-77
2020/12/09 04:17:02;;;;;;;59.07;37.40;;;1.10;99.90;;;1.63;97.85;96917.56;5270535;28;20233;-77
2020/12/09 04:19:34;;;;;;;68.00;40.63;;;1.10;99.90;;;1.66;98.73;96916.88;5269967;28;20194;-77
2020/12/09 04:22:06;;;;;;;65.53;40.83;;;1.10;99.90;;;1.65;98.47;96926.09;5270483;28;20200;-77
2020/12/09 04:24:39;;;;;;;61.27;37.03;;;1.10;99.90;;;1.67;98.05;96939.69;5289140;28;20290;-78
2020/12/09 04:27:11;;;;;;;62.37;37.93;;;1.10;99.90;;;1.71;98.89;96940.78;5291562;28;20241;-79
2020/12/09 04:29:43;;;;;;;104.67;60.50;;;1.10;99.90;;;1.71;98.46;96939.13;5293631;28;20215;-79
2020/12/09 04:32:15;;;;;;;75.43;45.77;;;1.10;99.90;;;1.70;98.73;96952.50;5294929;28;20202;-77
2020/12/09 04:34:48;;;;;;;61.40;39.17;;;1.10;99.90;;;1.73;98.81;96947.69;5284445;28;20226;-78
2020/12/09 04:37:21;;;;;;;63.93;41.13;;;1.10;99.90;;;1.72;99.66;96950.13;5294525;28;20212;-79
2020/12/09 04:39:55;;;;;;;72.10;44.37;;;1.10;99.90;;;1.73;98.93;96950.22;5294355;28;20581;-78
2020/12/09 04:42:28;;;;;;;60.10;38.57;;;1.10;99.90;;;1.70;98.69;96941.56;5292523;28;20202;-79
2020/12/09 04:45:00;;;;;;;56.57;36.53;;;1.10;99.90;;;1.71;98.80;96936.63;5291144;28;20706;-78
2020/12/09 04:47:43;;;;;;;54.73;33.20;;;1.20;99.90;;;1.76;99.38;96939.50;5273572;28;20240;-79
2020/12/09 04:50:15;;;;;;;63.17;38.50;;;1.20;99.90;;;1.75;99.03;96953.75;5288136;28;20204;-77
2020/12/09 04:52:58;;;;;;;62.83;39.00;;;1.20;99.90;;;1.78;99.65;96943.00;5293379;28;20221;-79
2020/12/09 04:55:33;;;;;;;79.30;47.60;;;1.20;99.90;;;1.75;98.64;96948.69;5294209;28;20259;-79
2020/12/09 04:58:16;;;;;;;64.70;39.60;;;1.10;99.90;;;1.74;98.93;96949.44;5290002;28;20227;-78
2020/12/09 05:01:03;;;;;;;63.83;39.30;;;1.10;99.90;;;1.74;99.53;96951.09;5289681;28;21926;-77
2020/12/09 05:03:46;;;;;;;60.93;37.13;;;1.20;99.90;;;1.72;99.40;96948.47;5286883;28;20765;-78
2020/12/09 05:06:20;;;;;;;54.50;34.23;;;1.10;99.90;;;1.71;99.15;96954.25;5296958;27;20201;-78
2020/12/09 05:08:55;;;;;;;63.27;37.77;;;1.10;99.90;;;1.78;99.29;96950.56;5298204;27;20289;-78
2020/12/09 05:11:28;;;;;;;69.70;42.90;;;1.20;99.90;;;1.84;99.96;96962.75;5292229;28;20205;-77
2020/12/09 05:14:02;;;;;;;65.83;39.23;;;1.20;99.90;;;1.88;99.22;96969.75;5288739;28;20380;-77
2020/12/09 05:16:49;;;;;;;59.60;36.33;;;1.20;99.90;;;1.84;99.93;96978.75;5276261;28;20196;-77
2020/12/09 05:19:21;;;;;;;54.73;34.33;;;1.20;99.90;;;1.90;99.64;96989.28;5283511;28;20679;-77
2020/12/09 05:21:55;;;;;;;56.47;36.03;;;1.30;99.90;;;1.88;99.80;96997.47;5292694;28;20202;-80
2020/12/09 05:24:27;;;;;;;58.57;37.90;;;1.20;99.90;;;1.87;99.16;96993.22;5292498;28;20211;-79
2020/12/09 05:27:03;;;;;;;54.93;34.17;;;1.20;99.90;;;1.86;99.76;96999.91;5292105;28;20222;-77
2020/12/09 05:29:45;;;;;;;59.20;35.97;;;1.20;99.90;;;1.87;100.00;96998.25;5293662;28;20294;-80
2020/12/09 05:32:18;;;;;;;60.70;39.30;;;1.20;99.90;;;1.85;99.89;96999.78;5282068;28;20248;-79
2020/12/09 05:34:50;;;;;;;58.00;36.20;;;1.20;99.90;;;1.86;99.60;96999.00;5291282;28;20811;-77
2020/12/09 05:37:22;;;;;;;56.77;34.70;;;1.30;99.90;;;1.90;99.79;96989.28;5282378;28;20199;-79
2020/12/09 05:39:55;;;;;;;52.27;33.10;;;1.30;99.90;;;1.93;100.00;96993.69;5272107;28;20217;-78
2020/12/09 05:42:29;;;;;;;61.63;34.50;;;1.30;99.90;;;1.95;100.00;96992.16;5292957;28;20206;-78
2020/12/09 05:45:01;;;;;;;57.70;35.93;;;1.40;99.90;;;2.00;99.78;96995.88;5272613;28;20231;-80
2020/12/09 05:47:33;;;;;;;66.97;41.07;;;1.40;99.90;;;2.00;99.39;96995.88;5284690;28;20568;-77
2020/12/09 05:50:05;;;;;;;61.27;36.30;;;1.30;99.90;;;2.01;100.00;97002.69;5282877;28;20210;-79
2020/12/09 05:52:40;;;;;;;57.27;35.57;;;1.30;99.90;;;1.99;100.00;97006.72;5283846;28;20205;-79
2020/12/09 05:55:22;;;;;;;59.27;35.33;;;1.30;99.90;;;1.99;99.78;97006.72;5272637;28;20313;-79
2020/12/09 05:57:55;;;;;;;58.47;36.03;;;1.30;99.90;;;1.97;99.75;97009.13;5291479;28;20678;-78
2020/12/09 06:00:27;;;;;;;59.30;37.80;;;1.30;99.90;;;1.94;99.14;97010.53;5279819;28;20204;-79
2020/12/09 06:03:17;;;;;;;55.20;35.93;;;1.30;99.90;;;1.94;100.00;97020.63;5288207;28;20206;-80
2020/12/09 06:06:15;;;;;;;59.83;36.00;;;1.30;99.90;;;1.94;99.94;97021.50;5280729;28;20198;-81
2020/12/09 06:08:50;;;;;;;56.07;33.83;;;1.40;99.90;;;1.95;99.96;97024.91;5282395;28;20220;-80
2020/12/09 06:11:24;;;;;;;57.03;35.20;;;1.40;99.90;;;1.98;100.00;97030.19;5300328;27;20280;-80
2020/12/09 06:13:57;;;;;;;52.13;34.60;;;1.40;99.90;;;2.02;99.72;97029.63;5283651;27;20238;-79
2020/12/09 06:16:29;;;;;;;57.73;36.13;;;1.40;99.90;;;2.05;100.00;97039.06;5280433;28;20199;-80
2020/12/09 06:19:02;;;;;;;54.73;35.87;;;1.40;99.90;;;2.10;100.00;97037.78;5289220;28;20196;-79
2020/12/09 06:21:34;;;;;;;55.30;33.97;;;1.50;99.90;;;2.10;100.00;97038.66;5289170;28;20195;-79
2020/12/09 06:24:07;;;;;;;46.53;30.07;;;1.50;99.90;;;2.12;100.00;97036.25;5292038;28;20603;-79
2020/12/09 06:26:38;;;;;;;51.30;32.23;;;1.50;99.90;;;2.17;99.92;97035.84;5291193;28;20196;-79
2020/12/09 06:29:11;;;;;;;46.10;30.73;;;1.50;99.90;;;2.19;100.00;97036.84;5288027;28;20196;-82
2020/12/09 06:31:58;;;;;;;46.33;29.63;;;1.60;99.90;;;2.17;100.00;97033.31;5285029;28;20207;-79
2020/12/09 06:34:30;;;;;;;43.90;28.77;;;1.50;99.90;;;2.16;100.00;97040.78;5282034;28;20227;-82
2020/12/09 06:37:13;;;;;;;41.83;28.37;;;1.50;99.90;;;2.17;100.00;97040.00;5291898;28;20192;-82
2020/12/09 06:40:10;;;;;;;40.73;29.27;;;1.50;99.90;;;2.18;99.89;97040.13;5292451;28;20199;-80
2020/12/09 06:42:42;;;;;;;43.87;28.80;;;1.50;99.90;;;2.16;100.00;97043.28;5292607;28;20387;-81
2020/12/09 06:45:14;;;;;;;42.30;29.43;;;1.50;99.90;;;2.12;100.00;97042.19;5298744;22;20727;-79
2020/12/09 06:48:09;;;;;;;43.57;29.07;;;1.50;99.90;;;2.12;100.00;97036.25;5268188;28;20222;-80
2020/12/09 06:50:43;;;;;;;42.23;28.30;;;1.50;99.90;;;2.12;100.00;97047.22;5266308;28;20207;-79
2020/12/09 06:53:16;;;;;;;40.30;26.23;;;1.50;99.90;;;2.12;100.00;97049.75;5286877;28;20581;-79
2020/12/09 06:55:51;;;;;;;37.73;27.27;;;1.50;99.90;;;2.14;100.00;97047.34;5284605;28;20688;-78
2020/12/09 06:58:24;;;;;;;40.00;27.47;;;1.50;99.90;;;2.14;100.00;97060.81;5268764;28;20212;-79
2020/12/09 07:01:00;;;;;;;42.43;28.70;;;1.50;99.90;;;2.13;100.00;97054.03;5268207;28;20326;-78
2020/12/09 07:03:36;;;;;;;36.23;26.87;;;1.50;99.90;;;2.16;100.00;97063.47;5264206;28;20199;-79
2020/12/09 07:06:32;;;;;;;40.33;28.07;;;1.50;99.90;;;2.21;100.00;97063.03;5267527;28;20234;-78
2020/12/09 07:09:04;;;;;;;40.53;26.40;;;1.60;99.90;;;2.22;99.70;97064.78;5270030;28;20224;-80
2020/12/09 07:11:55;;;;;;;34.77;25.77;;;1.60;99.90;;;2.24;99.98;97067.44;5284804;28;20191;-80
2020/12/09 07:14:34;;;;;;;42.53;28.33;;;1.60;99.90;;;2.27;100.00;97066.81;5271699;28;20224;-80
2020/12/09 07:17:12;;;;;;;36.90;25.80;;;1.60;99.90;;;2.27;100.00;97065.16;5268988;28;20223;-80
2020/12/09 07:19:44;;;;;;;38.07;25.90;;;1.60;99.90;;;2.27;100.00;97071.84;5269171;28;20191;-81
2020/12/09 07:22:18;;;;;;;40.47;27.00;;;1.60;99.90;;;2.29;100.00;97072.81;5280342;28;20231;-81
2020/12/09 07:24:50;;;;;;;36.70;25.63;;;1.60;99.90;;;2.30;100.00;97067.03;5292241;28;20226;-79
2020/12/09 07:27:25;;;;;;;36.10;26.93;;;1.60;99.90;;;2.29;99.61;97076.25;5265732;28;20238;-79
2020/12/09 07:30:01;;;;;;;38.07;26.33;;;1.60;99.90;;;2.30;100.00;97079.63;5263062;28;20210;-80
2020/12/09 07:32:34;;;;;;;36.73;25.47;;;1.70;99.90;;;2.29;100.00;97085.41;5269743;28;20206;-81
2020/12/09 07:35:08;;;;;;;42.50;29.00;;;1.60;99.90;;;2.28;99.51;97088.72;5264420;28;20215;-79
2020/12/09 07:37:43;;;;;;;40.97;28.10;;;1.60;99.90;;;2.28;100.00;97089.59;5272735;28;20308;-81
2020/12/09 07:40:20;;;;;;;39.03;28.60;;;1.60;99.90;;;2.23;99.20;97090.88;5269926;28;20203;-80
2020/12/09 07:43:05;;;;;;;40.23;28.83;;;1.60;99.90;;;2.20;99.89;97096.59;5271040;28;20261;-81
2020/12/09 07:45:39;;;;;;;39.97;28.30;;;1.50;99.90;;;2.23;99.25;97100.97;5268873;28;20600;-82
2020/12/09 07:48:14;;;;;;;43.63;29.57;;;1.60;99.90;;;2.28;99.45;97097.16;5266623;28;20230;-80
2020/12/09 07:50:50;;;;;;;40.33;28.83;;;1.60;99.90;;;2.24;99.10;97105.25;5264429;28;20201;-81
2020/12/09 07:53:22;;;;;;;40.37;27.40;;;1.50;99.90;;;2.25;100.00;97105.34;5265609;28;20203;-80
2020/12/09 07:55:54;;;;;;;42.70;29.30;;;1.60;99.90;;;2.25;99.90;97110.41;5268238;28;20222;-81
2020/12/09 07:58:27;;;;;;;44.27;30.40;;;1.60;99.90;;;2.24;99.65;97101.09;5266846;28;20192;-81
2020/12/09 08:00:59;;;;;;;44.73;30.80;;;1.60;99.90;;;2.24;100.00;97112.81;5264429;28;20615;-80
2020/12/09 08:03:31;;;;;;;39.43;27.27;;;1.60;99.90;;;2.25;99.77;97114.56;5265858;28;20192;-80
2020/12/09 08:06:25;;;;;;;40.47;28.30;;;1.60;99.90;;;2.28;100.00;97119.84;5269703;28;20772;-81
2020/12/09 08:09:14;;;;;;;39.63;27.10;;;1.70;99.90;;;2.28;99.66;97111.41;5262547;28;20693;-81
2020/12/09 08:11:47;;;;;;;45.20;30.60;;;1.70;99.90;;;2.29;99.69;97116.56;5269588;28;20548;-81
2020/12/09 08:14:21;;;;;;;41.43;29.40;;;1.70;99.90;;;2.31;99.86;97119.19;5264769;28;20663;-82
2020/12/09 08:16:53;;;;;;;46.73;31.27;;;1.70;99.90;;;2.36;99.86;97122.97;5267522;28;20199;-80
2020/12/09 08:19:25;;;;;;;45.33;31.60;;;1.70;99.90;;;2.31;100.00;97120.06;5264532;28;20199;-80
2020/12/09 08:22:06;;;;;;;43.57;30.23;;;1.60;99.90;;;2.27;99.32;97122.25;5267860;28;21596;-80
2020/12/09 08:24:38;;;;;;;44.30;30.43;;;1.60;99.90;;;2.29;100.00;97131.72;5269361;28;20221;-81
2020/12/09 08:27:20;;;;;;;45.57;32.63;;;1.60;99.90;;;2.30;99.59;97132.59;5269319;28;20210;-80
2020/12/09 08:29:53;;;;;;;41.33;31.33;;;1.60;99.90;;;2.28;99.73;97129.06;5266411;28;20200;-80
2020/12/09 08:32:25;;;;;;;43.50;32.03;;;1.60;99.90;;;2.24;99.43;97127.94;5261122;28;20196;-81
2020/12/09 08:35:10;;;;;;;49.70;32.80;;;1.60;99.90;;;2.22;99.62;97135.38;5261287;28;20216;-80
2020/12/09 08:37:44;;;;;;;45.33;31.77;;;1.70;99.90;;;2.24;100.00;97127.94;5268355;28;20199;-80
2020/12/09 08:40:17;;;;;;;48.87;33.27;;;1.70;99.90;;;2.28;100.00;97140.00;5269480;28;20207;-80
2020/12/09 08:42:58;;;;;;;45.50;32.33;;;1.70;99.90;;;2.31;99.70;97136.84;5268864;28;20208;-80
2020/12/09 08:45:31;;;;;;;48.87;33.07;;;1.70;99.90;;;2.30;100.00;97145.19;5267316;28;21226;-81
2020/12/09 08:48:04;;;;;;;47.47;33.30;;;1.60;99.90;;;2.28;99.40;97151.75;5266921;28;20216;-81
2020/12/09 08:50:36;;;;;;;45.57;32.10;;;1.60;99.90;;;2.31;99.09;97152.84;5266414;28;20268;-80
2020/12/09 08:53:08;;;;;;;44.37;30.80;;;1.60;99.90;;;2.29;99.75;97150.97;5269391;28;20618;-81
2020/12/09 08:55:41;;;;;;;47.50;31.03;;;1.60;99.90;;;2.27;100.00;97150.88;5268340;28;20224;-80
2020/12/09 08:58:15;;;;;;;42.97;31.50;;;1.60;99.90;;;2.25;99.32;97148.22;5268245;28;20204;-81
2020/12/09 09:00:49;;;;;;;45.50;32.20;;;1.70;99.90;;;2.22;99.96;97150.50;5266728;28;20203;-81
2020/12/09 09:03:24;;;;;;;44.33;30.87;;;1.60;99.90;;;2.26;99.33;97154.13;5265077;28;20200;-81
2020/12/09 09:05:58;;;;;;;45.23;32.10;;;1.70;99.90;;;2.25;99.07;97144.81;5264311;28;20316;-81
2020/12/09 09:08:30;;;;;;;40.70;29.50;;;1.70;99.90;;;2.25;99.42;97145.69;5276137;28;20221;-81
2020/12/09 09:11:02;;;;;;;54.40;36.33;;;1.70;99.90;;;2.30;99.26;97150.22;5269673;28;20695;-81
2020/12/09 09:13:34;;;;;;;48.93;36.37;;;1.70;99.90;;;2.30;99.32;97150.22;5268551;28;20204;-80
2020/12/09 09:16:08;;;;;;;46.20;32.77;;;1.70;99.90;;;2.32;99.97;97152.09;5265761;28;20702;-81
2020/12/09 09:18:40;;;;;;;43.80;30.87;;;1.70;99.90;;;2.34;99.58;97144.66;5261376;28;20188;-81
2020/12/09 09:21:12;;;;;;;43.80;32.47;;;1.70;99.90;;;2.34;99.60;97153.09;5279344;28;20195;-81
2020/12/09 09:23:44;;;;;;;39.73;29.67;;;1.70;99.90;;;2.38;99.52;97149.19;5268608;28;20204;-81
2020/12/09 09:26:18;;;;;;;45.60;30.63;;;1.80;99.90;;;2.38;100.00;97145.00;5267406;28;20227;-81
2020/12/09 09:28:50;;;;;;;47.23;32.03;;;1.80;99.90;;;2.42;99.82;97148.63;5268230;28;20640;-82
2020/12/09 09:31:23;;;;;;;43.73;32.43;;;1.80;99.90;;;2.39;99.81;97159.38;5267657;28;20193;-81
2020/12/09 09:33:55;;;;;;;46.77;32.93;;;1.70;99.90;;;2.37;99.95;97160.00;5269300;28;20232;-81
2020/12/09 09:36:29;;;;;;;48.60;33.77;;;1.70;99.90;;;2.37;99.10;97157.47;5275788;28;20203;-81
2020/12/09 09:39:01;;;;;;;54.73;37.80;;;1.70;99.90;;;2.37;99.28;97154.97;5267238;28;20196;-81
2020/12/09 09:41:35;;;;;;;52.33;37.53;;;1.70;99.90;;;2.37;98.84;97163.41;5266455;28;20299;-81
2020/12/09 09:44:07;;;;;;;50.93;34.20;;;1.70;99.90;;;2.37;99.26;97160.00;5266705;28;20224;-80
2020/12/09 09:46:40;;;;;;;48.13;33.67;;;1.70;99.90;;;2.36;99.74;97166.69;5268007;28;20203;-80
2020/12/09 09:49:12;;;;;;;48.53;33.13;;;1.80;99.90;;;2.39;99.80;97163.53;5266145;28;20223;-80
2020/12/09 09:51:44;;;;;;;57.00;36.20;;;1.80;99.90;;;2.37;99.44;97168.44;5268038;28;20203;-81
2020/12/09 09:54:16;;;;;;;50.93;33.30;;;1.80;99.90;;;2.38;99.76;97174.41;5268634;28;20235;-82
2020/12/09 09:56:49;;;;;;;49.07;32.83;;;1.80;99.90;;;2.38;99.64;97161.78;5267744;28;20204;-80
2020/12/09 09:59:21;;;;;;;49.73;32.50;;;1.80;99.90;;;2.38;99.25;97155.09;5266662;28;20458;-80
2020/12/09 10:01:54;;;;;;;51.47;34.00;;;1.80;99.90;;;2.40;100.00;97150.16;5267296;28;20249;-81
2020/12/09 10:04:26;;;;;;;50.47;35.27;;;1.80;99.90;;;2.41;99.62;97150.28;5268210;28;20669;-80
2020/12/09 10:07:02;;;;;;;51.07;34.70;;;1.80;99.90;;;2.41;99.54;97147.75;5269742;28;20596;-80
2020/12/09 10:09:34;;;;;;;48.73;33.13;;;1.80;99.90;;;2.42;99.63;97149.50;5259102;28;20544;-81
2020/12/09 10:12:06;;;;;;;51.07;34.83;;;1.80;99.90;;;2.43;100.00;97150.38;5267144;28;20204;-80
2020/12/09 10:14:39;;;;;;;48.63;32.90;;;1.80;99.90;;;2.37;98.91;97147.41;5267189;28;20239;-80
2020/12/09 10:17:11;;;;;;;50.53;31.70;;;1.70;99.90;;;2.38;99.89;97131.53;5265601;28;20207;-80
2020/12/09 10:19:43;;;;;;;52.23;34.80;;;1.80;99.90;;;2.45;99.25;97133.75;5264134;28;20580;-80
2020/12/09 10:22:16;;;;;;;52.50;35.43;;;1.70;99.90;;;2.45;99.01;97139.66;5249247;28;20326;-80
2020/12/09 10:24:48;;;;;;;49.17;33.87;;;1.80;99.90;;;2.43;98.79;97145.34;5248131;28;20219;-79
2020/12/09 10:27:21;;;;;;;55.50;36.97;;;1.70;99.90;;;2.46;98.92;97140.53;5253954;28;20211;-81
2020/12/09 10:29:53;;;;;;;46.70;33.97;;;1.80;99.90;;;2.42;98.91;97136.03;5255966;28;20230;-81
2020/12/09 10:32:26;;;;;;;55.77;37.70;;;1.80;99.90;;;2.47;99.26;97137.25;5277822;28;20199;-82
2020/12/09 10:34:58;;;;;;;54.80;35.87;;;1.80;99.90;;;2.47;98.83;97137.25;5267600;28;20242;-82
2020/12/09 10:37:30;;;;;;;58.30;36.43;;;1.80;99.90;;;2.53;99.10;97140.25;5265808;28;20192;-80
2020/12/09 10:40:04;;;;;;;50.53;35.60;;;1.80;99.90;;;2.48;98.88;97141.53;5266950;28;20208;-81
2020/12/09 10:42:36;;;;;;;57.47;36.90;;;1.80;99.90;;;2.50;98.72;97137.50;5267591;28;20203;-82
2020/12/09 10:45:10;;;;;;;54.53;36.40;;;1.90;99.90;;;2.53;99.08;97140.25;5282815;28;20238;-81